createdAt,value
2023-03-11T00:00:02.274Z,995.15
2023-03-11T00:01:02.072Z,995.12
2023-03-11T00:02:03.189Z,995.15
2023-03-11T00:03:02.990Z,995.24
2023-03-11T00:04:02.642Z,995.21
2023-03-11T00:05:02.870Z,995.16
2023-03-11T00:06:02.952Z,995.16
2023-03-11T00:07:03.168Z,995.27
2023-03-11T00:08:02.962Z,995.27
2023-03-11T00:09:03.256Z,995.21
2023-03-11T00:10:02.959Z,995.28
2023-03-11T00:11:03.276Z,995.21
2023-03-11T00:12:03.417Z,995.30
2023-03-11T00:13:03.405Z,995.28
2023-03-11T00:14:03.144Z,995.36
2023-03-11T00:15:03.369Z,995.36
2023-03-11T00:16:03.440Z,995.31
2023-03-11T00:17:02.501Z,995.31
2023-03-11T00:18:02.483Z,995.33
2023-03-11T00:19:02.191Z,995.37
2023-03-11T00:20:02.489Z,995.28
2023-03-11T00:21:02.261Z,995.35
2023-03-11T00:22:02.721Z,995.32
2023-03-11T00:23:03.074Z,995.32
2023-03-11T00:24:02.559Z,995.29
2023-03-11T00:25:02.736Z,995.33
2023-03-11T00:26:02.619Z,995.34
2023-03-11T00:27:02.644Z,995.37
2023-03-11T00:28:02.517Z,995.27
2023-03-11T00:29:02.234Z,995.35
2023-03-11T00:30:02.141Z,995.38
2023-03-11T00:31:02.516Z,995.30
2023-03-11T00:32:02.487Z,995.50
2023-03-11T00:33:02.629Z,995.44
2023-03-11T00:34:02.454Z,995.52
2023-03-11T00:35:02.165Z,995.40
2023-03-11T00:36:02.278Z,995.51
2023-03-11T00:37:03.078Z,995.52
2023-03-11T00:38:02.704Z,995.48
2023-03-11T00:39:03.086Z,995.49
2023-03-11T00:40:03.207Z,995.52
2023-03-11T00:41:02.881Z,995.53
2023-03-11T00:42:03.127Z,995.55
2023-03-11T00:43:02.993Z,995.67
2023-03-11T00:44:03.092Z,995.61
2023-03-11T00:45:03.272Z,995.69
2023-03-11T00:46:02.942Z,995.68
2023-03-11T00:47:02.460Z,995.68
2023-03-11T00:48:02.427Z,995.69
2023-03-11T00:49:02.961Z,995.69
2023-03-11T00:50:02.909Z,995.71
2023-03-11T00:51:02.755Z,995.74
2023-03-11T00:52:02.408Z,995.72
2023-03-11T00:53:02.674Z,995.76
2023-03-11T00:54:02.527Z,995.67
2023-03-11T00:55:02.710Z,995.78
2023-03-11T00:56:02.986Z,995.78
2023-03-11T00:57:02.382Z,995.76
2023-03-11T00:58:02.813Z,995.79
2023-03-11T00:59:02.385Z,995.76
2023-03-11T01:00:02.661Z,995.73
2023-03-11T01:01:02.700Z,995.74
2023-03-11T01:02:02.253Z,995.73
2023-03-11T01:03:02.485Z,995.77
2023-03-11T01:04:02.173Z,995.83
2023-03-11T01:05:01.883Z,995.83
2023-03-11T01:06:01.932Z,995.80
2023-03-11T01:07:02.297Z,995.82
2023-03-11T01:08:02.686Z,995.79
2023-03-11T01:09:02.273Z,995.85
2023-03-11T01:10:02.661Z,995.84
2023-03-11T01:11:02.721Z,995.88
2023-03-11T01:12:02.251Z,995.80
2023-03-11T01:13:02.216Z,995.88
2023-03-11T01:14:01.764Z,995.86
2023-03-11T01:15:01.963Z,995.92
2023-03-11T01:16:02.077Z,995.93
2023-03-11T01:17:02.579Z,995.91
2023-03-11T01:18:02.429Z,995.90
2023-03-11T01:19:02.296Z,995.98
2023-03-11T01:20:02.666Z,995.95
2023-03-11T01:21:02.260Z,995.94
2023-03-11T01:22:01.485Z,995.94
2023-03-11T01:23:01.701Z,995.92
2023-03-11T01:24:01.990Z,995.95
2023-03-11T01:25:01.575Z,995.95
2023-03-11T01:26:01.903Z,995.97
2023-03-11T01:27:02.346Z,996.01
2023-03-11T01:28:02.175Z,995.97
2023-03-11T01:29:02.111Z,996.06
2023-03-11T01:30:02.425Z,995.98
2023-03-11T01:31:02.028Z,996.02
2023-03-11T01:32:01.682Z,996.03
2023-03-11T01:33:01.887Z,996.04
2023-03-11T01:34:01.671Z,996.05
2023-03-11T01:35:01.307Z,995.99
2023-03-11T01:36:01.681Z,996.03
2023-03-11T01:37:01.752Z,995.98
2023-03-11T01:38:02.057Z,996.07
2023-03-11T01:39:02.108Z,996.10
2023-03-11T01:40:01.811Z,996.13
2023-03-11T01:41:02.124Z,996.09
2023-03-11T01:42:01.799Z,996.11
2023-03-11T01:43:02.331Z,996.17
2023-03-11T01:44:02.170Z,996.11
2023-03-11T01:45:02.271Z,996.13
2023-03-11T01:46:01.964Z,996.19
2023-03-11T01:47:02.009Z,996.15
2023-03-11T01:48:02.561Z,996.24
2023-03-11T01:49:02.630Z,996.21
2023-03-11T01:50:02.009Z,996.20
2023-03-11T01:51:02.207Z,996.16
2023-03-11T01:52:02.122Z,996.21
2023-03-11T01:53:02.241Z,996.18
2023-03-11T01:54:02.706Z,996.16
2023-03-11T01:55:02.189Z,996.21
2023-03-11T01:56:02.709Z,996.28
2023-03-11T01:57:01.809Z,996.21
2023-03-11T01:58:01.765Z,996.27
2023-03-11T01:59:01.771Z,996.22
2023-03-11T02:00:02.039Z,996.21
2023-03-11T02:01:01.876Z,996.20
2023-03-11T02:02:02.034Z,996.23
2023-03-11T02:03:02.305Z,996.25
2023-03-11T02:04:02.079Z,996.18
2023-03-11T02:05:02.021Z,996.23
2023-03-11T02:06:01.880Z,996.14
2023-03-11T02:07:02.499Z,996.23
2023-03-11T02:08:02.475Z,996.27
2023-03-11T02:09:02.739Z,996.23
2023-03-11T02:10:02.687Z,996.22
2023-03-11T02:11:02.360Z,996.23
2023-03-11T02:12:02.751Z,996.25
2023-03-11T02:13:02.643Z,996.28
2023-03-11T02:14:02.347Z,996.27
2023-03-11T02:15:02.698Z,996.30
2023-03-11T02:16:03.032Z,996.42
2023-03-11T02:17:02.563Z,996.31
2023-03-11T02:18:02.746Z,996.41
2023-03-11T02:19:03.064Z,996.34
2023-03-11T02:20:02.934Z,996.41
2023-03-11T02:21:02.881Z,996.40
2023-03-11T02:22:02.217Z,996.44
2023-03-11T02:23:02.378Z,996.47
2023-03-11T02:24:02.474Z,996.36
2023-03-11T02:25:01.927Z,996.42
2023-03-11T02:26:02.179Z,996.44
2023-03-11T02:27:02.329Z,996.43
2023-03-11T02:28:02.044Z,996.43
2023-03-11T02:29:01.957Z,996.41
2023-03-11T02:30:02.031Z,996.48
2023-03-11T02:31:02.168Z,996.39
2023-03-11T02:32:02.493Z,996.47
2023-03-11T02:33:02.129Z,996.44
2023-03-11T02:34:02.438Z,996.42
2023-03-11T02:35:02.121Z,996.42
2023-03-11T02:36:02.124Z,996.40
2023-03-11T02:37:02.257Z,996.45
2023-03-11T02:38:01.817Z,996.41
2023-03-11T02:39:02.147Z,996.41
2023-03-11T02:40:02.164Z,996.42
2023-03-11T02:41:01.788Z,996.42
2023-03-11T02:42:02.327Z,996.41
2023-03-11T02:43:02.585Z,996.46
2023-03-11T02:44:02.605Z,996.38
2023-03-11T02:45:02.319Z,996.44
2023-03-11T02:46:02.593Z,996.47
2023-03-11T02:47:02.813Z,996.53
2023-03-11T02:48:02.553Z,996.52
2023-03-11T02:49:02.781Z,996.54
2023-03-11T02:50:02.479Z,996.53
2023-03-11T02:51:02.510Z,996.63
2023-03-11T02:52:01.958Z,996.55
2023-03-11T02:53:02.242Z,996.58
2023-03-11T02:54:01.992Z,996.60
2023-03-11T02:55:02.033Z,996.68
2023-03-11T02:56:01.733Z,996.63
2023-03-11T02:57:02.505Z,996.67
2023-03-11T02:58:02.110Z,996.64
2023-03-11T02:59:02.308Z,996.65
2023-03-11T03:00:02.626Z,996.70
2023-03-11T03:01:02.523Z,996.75
2023-03-11T03:02:03.635Z,996.71
2023-03-11T03:03:03.729Z,996.77
2023-03-11T03:04:03.622Z,996.75
2023-03-11T03:05:03.137Z,996.84
2023-03-11T03:06:03.719Z,996.80
2023-03-11T03:07:02.401Z,996.88
2023-03-11T03:08:02.540Z,996.80
2023-03-11T03:09:02.942Z,996.84
2023-03-11T03:10:02.849Z,996.86
2023-03-11T03:11:02.593Z,996.81
2023-03-11T03:12:02.614Z,996.81
2023-03-11T03:13:02.825Z,996.87
2023-03-11T03:14:02.530Z,996.77
2023-03-11T03:15:03.159Z,996.83
2023-03-11T03:16:02.533Z,996.77
2023-03-11T03:17:03.178Z,996.86
2023-03-11T03:18:03.586Z,996.81
2023-03-11T03:19:03.342Z,996.83
2023-03-11T03:20:03.543Z,996.79
2023-03-11T03:21:03.572Z,996.82
2023-03-11T03:22:02.901Z,996.80
2023-03-11T03:23:02.534Z,996.81
2023-03-11T03:24:02.824Z,996.76
2023-03-11T03:25:02.969Z,996.79
2023-03-11T03:26:02.868Z,996.74
2023-03-11T03:27:03.081Z,996.76
2023-03-11T03:28:03.216Z,996.75
2023-03-11T03:29:02.736Z,996.77
2023-03-11T03:30:03.128Z,996.79
2023-03-11T03:31:03.008Z,996.81
2023-03-11T03:32:03.084Z,996.80
2023-03-11T03:33:03.229Z,996.76
2023-03-11T03:34:02.820Z,996.79
2023-03-11T03:35:02.868Z,996.79
2023-03-11T03:36:03.071Z,996.79
2023-03-11T03:37:03.541Z,996.75
2023-03-11T03:38:03.143Z,996.86
2023-03-11T03:39:03.345Z,996.78
2023-03-11T03:40:03.124Z,996.87
2023-03-11T03:41:03.445Z,996.83
2023-03-11T03:42:03.742Z,996.81
2023-03-11T03:43:03.134Z,996.87
2023-03-11T03:44:03.384Z,996.90
2023-03-11T03:45:03.585Z,996.92
2023-03-11T03:46:03.742Z,996.92
2023-03-11T03:47:02.932Z,996.93
2023-03-11T03:48:02.310Z,996.94
2023-03-11T03:49:02.709Z,996.93
2023-03-11T03:50:02.704Z,996.95
2023-03-11T03:51:02.742Z,996.97
2023-03-11T03:52:02.942Z,997.08
2023-03-11T03:53:03.227Z,996.99
2023-03-11T03:54:02.877Z,997.00
2023-03-11T03:55:02.975Z,997.04
2023-03-11T03:56:02.923Z,997.10
2023-03-11T03:57:02.812Z,997.05
2023-03-11T03:58:03.353Z,997.08
2023-03-11T03:59:03.063Z,997.09
2023-03-11T04:00:02.931Z,997.09
2023-03-11T04:01:02.775Z,997.08
2023-03-11T04:02:02.502Z,997.10
2023-03-11T04:03:02.542Z,997.20
2023-03-11T04:04:02.497Z,997.16
2023-03-11T04:05:02.721Z,997.19
2023-03-11T04:06:02.786Z,997.21
2023-03-11T04:07:02.532Z,997.23
2023-03-11T04:08:02.821Z,997.24
2023-03-11T04:09:02.851Z,997.19
2023-03-11T04:10:02.803Z,997.19
2023-03-11T04:11:02.538Z,997.26
2023-03-11T04:12:02.778Z,997.20
2023-03-11T04:13:02.862Z,997.26
2023-03-11T04:14:02.834Z,997.27
2023-03-11T04:15:02.707Z,997.27
2023-03-11T04:16:02.684Z,997.28
2023-03-11T04:17:01.774Z,997.30
2023-03-11T04:18:02.010Z,997.29
2023-03-11T04:19:01.855Z,997.27
2023-03-11T04:20:02.080Z,997.39
2023-03-11T04:21:01.908Z,997.36
2023-03-11T04:22:02.042Z,997.39
2023-03-11T04:23:02.147Z,997.39
2023-03-11T04:24:02.136Z,997.40
2023-03-11T04:25:02.102Z,997.47
2023-03-11T04:26:02.384Z,997.43
2023-03-11T04:27:02.225Z,997.40
2023-03-11T04:28:02.385Z,997.43
2023-03-11T04:29:02.528Z,997.42
2023-03-11T04:30:02.456Z,997.49
2023-03-11T04:31:02.227Z,997.44
2023-03-11T04:32:02.681Z,997.46
2023-03-11T04:33:02.874Z,997.50
2023-03-11T04:34:03.066Z,997.51
2023-03-11T04:35:03.093Z,997.53
2023-03-11T04:36:03.135Z,997.58
2023-03-11T04:37:02.093Z,997.58
2023-03-11T04:38:02.211Z,997.61
2023-03-11T04:39:02.191Z,997.57
2023-03-11T04:40:02.061Z,997.58
2023-03-11T04:41:02.413Z,997.66
2023-03-11T04:42:04.085Z,997.58
2023-03-11T04:43:02.266Z,997.57
2023-03-11T04:44:02.226Z,997.61
2023-03-11T04:45:02.546Z,997.62
2023-03-11T04:46:02.246Z,997.62
2023-03-11T04:47:01.402Z,997.60
2023-03-11T04:48:01.453Z,997.65
2023-03-11T04:49:02.042Z,997.66
2023-03-11T04:50:01.595Z,997.67
2023-03-11T04:51:01.876Z,997.64
2023-03-11T04:52:01.626Z,997.67
2023-03-11T04:53:01.970Z,997.66
2023-03-11T04:54:02.230Z,997.63
2023-03-11T04:55:01.950Z,997.68
2023-03-11T04:56:01.887Z,997.71
2023-03-11T04:57:02.409Z,997.65
2023-03-11T04:58:02.354Z,997.68
2023-03-11T04:59:02.163Z,997.68
2023-03-11T05:00:02.012Z,997.71
2023-03-11T05:01:02.019Z,997.75
2023-03-11T05:02:02.762Z,997.71
2023-03-11T05:03:02.470Z,997.78
2023-03-11T05:04:03.020Z,997.75
2023-03-11T05:05:02.577Z,997.74
2023-03-11T05:06:02.756Z,997.81
2023-03-11T05:07:02.338Z,997.78
2023-03-11T05:08:02.333Z,997.72
2023-03-11T05:09:02.244Z,997.75
2023-03-11T05:10:01.953Z,997.80
2023-03-11T05:11:02.282Z,997.77
2023-03-11T05:12:02.509Z,997.77
2023-03-11T05:13:02.457Z,997.72
2023-03-11T05:14:02.717Z,997.71
2023-03-11T05:15:02.799Z,997.70
2023-03-11T05:16:02.496Z,997.78
2023-03-11T05:17:02.770Z,997.74
2023-03-11T05:18:02.777Z,997.66
2023-03-11T05:19:03.083Z,997.72
2023-03-11T05:20:03.074Z,997.67
2023-03-11T05:21:02.686Z,997.70
2023-03-11T05:22:02.007Z,997.75
2023-03-11T05:23:02.313Z,997.76
2023-03-11T05:24:01.972Z,997.83
2023-03-11T05:25:01.828Z,997.86
2023-03-11T05:26:01.750Z,997.85
2023-03-11T05:27:02.398Z,997.81
2023-03-11T05:28:02.114Z,997.87
2023-03-11T05:29:01.988Z,997.87
2023-03-11T05:30:02.454Z,997.91
2023-03-11T05:31:02.053Z,997.99
2023-03-11T05:32:02.155Z,998.01
2023-03-11T05:33:02.396Z,997.97
2023-03-11T05:34:02.623Z,998.02
2023-03-11T05:35:02.122Z,998.00
2023-03-11T05:36:02.457Z,997.96
2023-03-11T05:37:03.197Z,998.04
2023-03-11T05:38:02.235Z,998.03
2023-03-11T05:39:02.500Z,998.05
2023-03-11T05:40:02.148Z,998.03
2023-03-11T05:41:02.317Z,998.04
2023-03-11T05:42:02.022Z,998.12
2023-03-11T05:43:01.946Z,998.07
2023-03-11T05:44:01.766Z,998.12
2023-03-11T05:45:02.109Z,998.15
2023-03-11T05:46:01.550Z,998.12
2023-03-11T05:47:02.212Z,998.15
2023-03-11T05:48:01.910Z,998.18
2023-03-11T05:49:02.350Z,998.20
2023-03-11T05:50:01.904Z,998.18
2023-03-11T05:51:03.599Z,998.15
2023-03-11T05:52:03.909Z,998.19
2023-03-11T05:53:03.828Z,998.24
2023-03-11T05:54:04.316Z,998.27
2023-03-11T05:55:03.818Z,998.24
2023-03-11T05:56:04.053Z,998.30
2023-03-11T05:57:04.178Z,998.33
2023-03-11T05:58:04.222Z,998.26
2023-03-11T05:59:04.346Z,998.27
2023-03-11T06:00:04.231Z,998.29
2023-03-11T06:01:04.187Z,998.29
2023-03-11T06:02:04.317Z,998.26
2023-03-11T06:03:03.977Z,998.26
2023-03-11T06:04:03.947Z,998.26
2023-03-11T06:05:06.738Z,998.33
2023-03-11T06:06:03.913Z,998.28
2023-03-11T06:07:04.742Z,998.30
2023-03-11T06:08:04.257Z,998.29
2023-03-11T06:09:04.636Z,998.37
2023-03-11T06:10:04.402Z,998.32
2023-03-11T06:11:04.683Z,998.30
2023-03-11T06:12:04.418Z,998.33
2023-03-11T06:13:04.830Z,998.39
2023-03-11T06:14:04.822Z,998.36
2023-03-11T06:15:04.774Z,998.36
2023-03-11T06:16:04.554Z,998.38
2023-03-11T06:17:03.952Z,998.40
2023-03-11T06:18:03.886Z,998.35
2023-03-11T06:19:02.434Z,998.35
2023-03-11T06:20:01.944Z,998.37
2023-03-11T06:21:02.350Z,998.36
2023-03-11T06:22:03.557Z,998.34
2023-03-11T06:23:03.384Z,998.34
2023-03-11T06:24:04.036Z,998.36
2023-03-11T06:25:03.606Z,998.34
2023-03-11T06:26:03.666Z,998.34
2023-03-11T06:27:04.078Z,998.33
2023-03-11T06:28:04.330Z,998.35
2023-03-11T06:29:04.249Z,998.34
2023-03-11T06:30:04.246Z,998.38
2023-03-11T06:31:04.646Z,998.41
2023-03-11T06:32:04.650Z,998.40
2023-03-11T06:33:04.646Z,998.42
2023-03-11T06:34:04.171Z,998.45
2023-03-11T06:35:04.466Z,998.47
2023-03-11T06:36:04.709Z,998.48
2023-03-11T06:37:04.100Z,998.54
2023-03-11T06:38:04.229Z,998.48
2023-03-11T06:39:04.252Z,998.51
2023-03-11T06:40:03.984Z,998.53
2023-03-11T06:41:04.145Z,998.54
2023-03-11T06:42:03.422Z,998.56
2023-03-11T06:43:03.621Z,998.60
2023-03-11T06:44:03.842Z,998.68
2023-03-11T06:45:03.855Z,998.65
2023-03-11T06:46:03.590Z,998.64
2023-03-11T06:47:03.924Z,998.69
2023-03-11T06:48:04.107Z,998.68
2023-03-11T06:49:03.849Z,998.65
2023-03-11T06:50:04.190Z,998.72
2023-03-11T06:51:04.080Z,998.69
2023-03-11T06:52:03.850Z,998.74
2023-03-11T06:53:03.305Z,998.71
2023-03-11T06:54:03.341Z,998.76
2023-03-11T06:55:03.356Z,998.72
2023-03-11T06:56:03.280Z,998.78
2023-03-11T06:57:04.203Z,998.80
2023-03-11T06:58:03.660Z,998.78
2023-03-11T06:59:03.672Z,998.84
2023-03-11T07:00:03.953Z,998.76
2023-03-11T07:01:03.662Z,998.87
2023-03-11T07:02:04.399Z,998.82
2023-03-11T07:03:04.124Z,998.87
2023-03-11T07:04:04.393Z,998.94
2023-03-11T07:05:03.907Z,998.99
2023-03-11T07:06:03.594Z,999.01
2023-03-11T07:07:01.838Z,999.01
2023-03-11T07:08:02.060Z,999.08
2023-03-11T07:09:01.836Z,999.06
2023-03-11T07:10:02.335Z,999.09
2023-03-11T07:11:02.258Z,999.10
2023-03-11T07:12:02.568Z,999.13
2023-03-11T07:13:02.128Z,999.18
2023-03-11T07:14:02.084Z,999.19
2023-03-11T07:15:02.556Z,999.25
2023-03-11T07:16:02.054Z,999.23
2023-03-11T07:17:02.601Z,999.26
2023-03-11T07:18:02.615Z,999.33
2023-03-11T07:19:02.784Z,999.32
2023-03-11T07:20:02.540Z,999.32
2023-03-11T07:21:02.874Z,999.35
2023-03-11T07:22:02.520Z,999.36
2023-03-11T07:23:02.176Z,999.38
2023-03-11T07:24:02.549Z,999.40
2023-03-11T07:25:02.354Z,999.39
2023-03-11T07:26:02.524Z,999.40
2023-03-11T07:27:02.509Z,999.40
2023-03-11T07:28:02.758Z,999.45
2023-03-11T07:29:02.606Z,999.43
2023-03-11T07:30:02.647Z,999.46
2023-03-11T07:31:02.441Z,999.55
2023-03-11T07:32:02.415Z,999.54
2023-03-11T07:33:02.293Z,999.56
2023-03-11T07:34:02.285Z,999.57
2023-03-11T07:35:02.262Z,999.58
2023-03-11T07:36:02.156Z,999.59
2023-03-11T07:37:02.263Z,999.67
2023-03-11T07:38:02.264Z,999.70
2023-03-11T07:39:04.251Z,999.68
2023-03-11T07:40:02.377Z,999.72
2023-03-11T07:41:02.062Z,999.69
2023-03-11T07:42:02.838Z,999.74
2023-03-11T07:43:02.654Z,999.76
2023-03-11T07:44:03.026Z,999.74
2023-03-11T07:45:02.768Z,999.83
2023-03-11T07:46:02.924Z,999.78
2023-03-11T07:47:02.010Z,999.85
2023-03-11T07:48:01.941Z,999.84
2023-03-11T07:49:02.315Z,999.84
2023-03-11T07:50:02.297Z,999.79
2023-03-11T07:51:01.906Z,999.77
2023-03-11T07:52:01.952Z,999.78
2023-03-11T07:53:01.737Z,999.82
2023-03-11T07:54:02.260Z,999.78
2023-03-11T07:55:02.226Z,999.85
2023-03-11T07:56:01.774Z,999.83
2023-03-11T07:57:02.378Z,999.81
2023-03-11T07:58:02.451Z,999.84
2023-03-11T07:59:02.336Z,999.86
2023-03-11T08:00:02.521Z,999.94
2023-03-11T08:01:02.253Z,999.92
2023-03-11T08:02:02.581Z,999.94
2023-03-11T08:03:02.678Z,999.94
2023-03-11T08:04:02.619Z,999.91
2023-03-11T08:05:02.536Z,999.96
2023-03-11T08:06:02.912Z,1000.02
2023-03-11T08:07:02.725Z,999.97
2023-03-11T08:08:02.732Z,999.99
2023-03-11T08:09:02.553Z,1000.03
2023-03-11T08:10:02.552Z,1000.04
2023-03-11T08:11:02.998Z,1000.07
2023-03-11T08:12:03.294Z,1000.07
2023-03-11T08:13:03.657Z,1000.03
2023-03-11T08:14:03.684Z,1000.08
2023-03-11T08:15:03.480Z,1000.07
2023-03-11T08:16:03.489Z,1000.07
2023-03-11T08:17:02.821Z,1000.13
2023-03-11T08:18:02.721Z,1000.09
2023-03-11T08:19:02.884Z,1000.10
2023-03-11T08:20:02.714Z,1000.11
2023-03-11T08:21:02.905Z,1000.10
2023-03-11T08:22:02.653Z,1000.09
2023-03-11T08:23:02.473Z,1000.12
2023-03-11T08:24:04.463Z,1000.13
2023-03-11T08:25:02.463Z,1000.10
2023-03-11T08:26:02.280Z,1000.12
2023-03-11T08:27:02.607Z,1000.09
2023-03-11T08:28:02.711Z,1000.11
2023-03-11T08:29:02.701Z,1000.09
2023-03-11T08:30:02.620Z,1000.16
2023-03-11T08:31:02.443Z,1000.00
2023-03-11T08:32:02.831Z,1000.03
2023-03-11T08:33:02.935Z,1000.02
2023-03-11T08:34:02.725Z,999.98
2023-03-11T08:35:02.857Z,1000.03
2023-03-11T08:36:02.599Z,1000.06
2023-03-11T08:37:02.953Z,1000.09
2023-03-11T08:38:02.876Z,1000.06
2023-03-11T08:39:03.380Z,1000.11
2023-03-11T08:40:03.105Z,1000.08
2023-03-11T08:41:03.515Z,1000.09
2023-03-11T08:42:02.819Z,1000.02
2023-03-11T08:43:02.546Z,1000.01
2023-03-11T08:44:02.461Z,999.98
2023-03-11T08:45:02.262Z,999.93
2023-03-11T08:46:02.517Z,1000.03
2023-03-11T08:47:03.263Z,1000.06
2023-03-11T08:48:02.902Z,1000.01
2023-03-11T08:49:03.211Z,1000.05
2023-03-11T08:50:03.131Z,1000.03
2023-03-11T08:51:02.938Z,999.98
2023-03-11T08:52:03.279Z,999.99
2023-03-11T08:53:02.937Z,1000.01
2023-03-11T08:54:02.983Z,999.98
2023-03-11T08:55:03.264Z,1000.05
2023-03-11T08:56:02.978Z,1000.10
2023-03-11T08:57:02.557Z,1000.08
2023-03-11T08:58:02.509Z,1000.08
2023-03-11T08:59:02.952Z,1000.09
2023-03-11T09:00:02.914Z,1000.06
2023-03-11T09:01:02.911Z,1000.05
2023-03-11T09:02:02.322Z,1000.10
2023-03-11T09:03:02.714Z,1000.05
2023-03-11T09:04:02.301Z,1000.07
2023-03-11T09:05:02.071Z,1000.03
2023-03-11T09:06:02.372Z,1000.06
2023-03-11T09:07:02.273Z,1000.09
2023-03-11T09:08:03.310Z,1000.08
2023-03-11T09:09:01.747Z,1000.06
2023-03-11T09:10:01.972Z,1000.04
2023-03-11T09:11:01.969Z,1000.09
2023-03-11T09:12:02.370Z,1000.08
2023-03-11T09:13:01.987Z,1000.09
2023-03-11T09:14:01.968Z,1000.08
2023-03-11T09:15:02.246Z,1000.11
2023-03-11T09:16:02.093Z,1000.07
2023-03-11T09:17:03.082Z,1000.06
2023-03-11T09:18:03.171Z,1000.10
2023-03-11T09:19:02.744Z,1000.09
2023-03-11T09:20:02.567Z,1000.07
2023-03-11T09:21:03.049Z,1000.05
2023-03-11T09:22:02.584Z,1000.10
2023-03-11T09:23:02.433Z,1000.04
2023-03-11T09:24:02.580Z,1000.03
2023-03-11T09:25:02.367Z,1000.03
2023-03-11T09:26:01.962Z,1000.01
2023-03-11T09:27:03.035Z,1000.09
2023-03-11T09:28:02.602Z,1000.03
2023-03-11T09:29:02.586Z,1000.03
2023-03-11T09:30:02.472Z,1000.10
2023-03-11T09:31:02.792Z,1000.01
2023-03-11T09:32:03.132Z,999.97
2023-03-11T09:33:02.801Z,999.97
2023-03-11T09:34:02.669Z,1000.02
2023-03-11T09:35:03.118Z,999.93
2023-03-11T09:36:02.531Z,999.93
2023-03-11T09:37:01.972Z,999.97
2023-03-11T09:38:02.589Z,999.98
2023-03-11T09:39:02.123Z,1000.03
2023-03-11T09:40:02.295Z,1000.01
2023-03-11T09:41:02.252Z,1000.05
2023-03-11T09:42:02.118Z,1000.04
2023-03-11T09:43:02.665Z,1000.04
2023-03-11T09:44:02.313Z,1000.01
2023-03-11T09:45:02.248Z,1000.03
2023-03-11T09:46:02.106Z,999.97
2023-03-11T09:47:01.770Z,1000.01
2023-03-11T09:48:02.105Z,1000.04
2023-03-11T09:49:02.050Z,999.99
2023-03-11T09:50:01.870Z,1000.05
2023-03-11T09:51:01.645Z,1000.02
2023-03-11T09:52:02.251Z,1000.05
2023-03-11T09:53:02.223Z,1000.02
2023-03-11T09:54:02.324Z,1000.05
2023-03-11T09:55:02.370Z,1000.10
2023-03-11T09:56:02.244Z,1000.08
2023-03-11T09:57:01.790Z,1000.07
2023-03-11T09:58:02.236Z,1000.09
2023-03-11T09:59:01.835Z,1000.14
2023-03-11T10:00:02.159Z,1000.12
2023-03-11T10:01:01.720Z,1000.10
2023-03-11T10:02:02.994Z,1000.10
2023-03-11T10:03:03.003Z,1000.18
2023-03-11T10:04:02.752Z,1000.16
2023-03-11T10:05:03.124Z,1000.20
2023-03-11T10:06:02.971Z,1000.19
2023-03-11T10:07:02.068Z,1000.22
2023-03-11T10:08:02.443Z,1000.20
2023-03-11T10:09:02.035Z,1000.23
2023-03-11T10:10:01.960Z,1000.25
2023-03-11T10:11:02.447Z,1000.21
2023-03-11T10:12:02.114Z,1000.14
2023-03-11T10:13:02.556Z,1000.27
2023-03-11T10:14:02.469Z,1000.25
2023-03-11T10:15:02.129Z,1000.23
2023-03-11T10:16:02.055Z,1000.28
2023-03-11T10:17:02.270Z,1000.32
2023-03-11T10:18:02.812Z,1000.29
2023-03-11T10:19:02.330Z,1000.31
2023-03-11T10:20:02.205Z,1000.38
2023-03-11T10:21:02.581Z,1000.33
2023-03-11T10:22:02.651Z,1000.38
2023-03-11T10:23:03.219Z,1000.35
2023-03-11T10:24:02.855Z,1000.35
2023-03-11T10:25:02.613Z,1000.41
2023-03-11T10:26:03.124Z,1000.38
2023-03-11T10:27:02.317Z,1000.39
2023-03-11T10:28:02.432Z,1000.41
2023-03-11T10:29:02.189Z,1000.43
2023-03-11T10:30:02.723Z,1000.40
2023-03-11T10:31:02.179Z,1000.42
2023-03-11T10:32:03.092Z,1000.41
2023-03-11T10:33:02.816Z,1000.45
2023-03-11T10:34:03.298Z,1000.33
2023-03-11T10:35:02.889Z,1000.38
2023-03-11T10:36:03.412Z,1000.42
2023-03-11T10:37:02.623Z,1000.40
2023-03-11T10:38:02.537Z,1000.34
2023-03-11T10:39:02.915Z,1000.35
2023-03-11T10:40:02.862Z,1000.37
2023-03-11T10:41:02.635Z,1000.43
2023-03-11T10:42:02.731Z,1000.46
2023-03-11T10:43:02.911Z,1000.43
2023-03-11T10:44:02.791Z,1000.47
2023-03-11T10:45:02.466Z,1000.45
2023-03-11T10:46:02.997Z,1000.47
2023-03-11T10:47:02.330Z,1000.52
2023-03-11T10:48:02.078Z,1000.54
2023-03-11T10:49:02.421Z,1000.61
2023-03-11T10:50:02.276Z,1000.58
2023-03-11T10:51:02.327Z,1000.53
2023-03-11T10:52:02.343Z,1000.51
2023-03-11T10:53:02.293Z,1000.56
2023-03-11T10:54:02.189Z,1000.54
2023-03-11T10:55:02.061Z,1000.55
2023-03-11T10:56:02.346Z,1000.57
2023-03-11T10:57:02.829Z,1000.55
2023-03-11T10:58:02.778Z,1000.57
2023-03-11T10:59:02.651Z,1000.57
2023-03-11T11:00:02.707Z,1000.57
2023-03-11T11:01:03.257Z,1000.54
2023-03-11T11:02:02.027Z,1000.50
2023-03-11T11:03:01.970Z,1000.51
2023-03-11T11:04:01.995Z,1000.50
2023-03-11T11:05:02.018Z,1000.48
2023-03-11T11:06:01.877Z,1000.45
2023-03-11T11:07:02.267Z,1000.43
2023-03-11T11:08:02.403Z,1000.47
2023-03-11T11:09:02.303Z,1000.43
2023-03-11T11:10:02.195Z,1000.38
2023-03-11T11:11:01.976Z,1000.34
2023-03-11T11:12:02.489Z,1000.38
2023-03-11T11:13:02.749Z,1000.35
2023-03-11T11:14:02.527Z,1000.36
2023-03-11T11:15:02.185Z,1000.45
2023-03-11T11:16:02.818Z,1000.39
2023-03-11T11:17:02.182Z,1000.43
2023-03-11T11:18:01.754Z,1000.36
2023-03-11T11:19:02.256Z,1000.41
2023-03-11T11:20:01.849Z,1000.37
2023-03-11T11:21:02.162Z,1000.37
2023-03-11T11:22:02.638Z,1000.36
2023-03-11T11:23:02.581Z,1000.34
2023-03-11T11:24:02.630Z,1000.46
2023-03-11T11:25:02.595Z,1000.40
2023-03-11T11:26:02.559Z,1000.43
2023-03-11T11:27:02.799Z,1000.43
2023-03-11T11:28:02.615Z,1000.47
2023-03-11T11:29:02.812Z,1000.41
2023-03-11T11:30:02.574Z,1000.43
2023-03-11T11:31:02.562Z,1000.37
2023-03-11T11:32:02.145Z,1000.39
2023-03-11T11:33:01.717Z,1000.33
2023-03-11T11:34:02.349Z,1000.29
2023-03-11T11:35:02.370Z,1000.29
2023-03-11T11:36:01.789Z,1000.33
2023-03-11T11:37:02.709Z,1000.31
2023-03-11T11:38:02.280Z,1000.24
2023-03-11T11:39:02.483Z,1000.29
2023-03-11T11:40:02.696Z,1000.30
2023-03-11T11:41:02.401Z,1000.31
2023-03-11T11:42:01.856Z,1000.27
2023-03-11T11:43:01.691Z,1000.32
2023-03-11T11:44:01.562Z,1000.22
2023-03-11T11:45:01.416Z,1000.22
2023-03-11T11:46:02.055Z,1000.25
2023-03-11T11:47:03.846Z,1000.28
2023-03-11T11:48:02.286Z,1000.27
2023-03-11T11:49:02.092Z,1000.27
2023-03-11T11:50:01.985Z,1000.26
2023-03-11T11:51:02.081Z,1000.25
2023-03-11T11:52:02.573Z,1000.32
2023-03-11T11:53:02.454Z,1000.33
2023-03-11T11:54:02.234Z,1000.38
2023-03-11T11:55:02.042Z,1000.39
2023-03-11T11:56:02.149Z,1000.34
2023-03-11T11:57:02.290Z,1000.41
2023-03-11T11:58:01.858Z,1000.35
2023-03-11T11:59:01.758Z,1000.40
2023-03-11T12:00:02.331Z,1000.43
2023-03-11T12:01:02.104Z,1000.42
2023-03-11T12:02:02.721Z,1000.48
2023-03-11T12:03:02.423Z,1000.43
2023-03-11T12:04:02.357Z,1000.45
2023-03-11T12:05:02.766Z,1000.37
2023-03-11T12:06:02.279Z,1000.41
2023-03-11T12:07:02.214Z,1000.35
2023-03-11T12:08:02.206Z,1000.38
2023-03-11T12:09:02.239Z,1000.41
2023-03-11T12:10:12.884Z,1000.34
2023-03-11T12:11:01.917Z,1000.36
2023-03-11T12:12:02.733Z,1000.34
2023-03-11T12:13:02.117Z,1000.42
2023-03-11T12:14:02.123Z,1000.39
2023-03-11T12:15:02.651Z,1000.38
2023-03-11T12:16:02.422Z,1000.37
2023-03-11T12:17:03.651Z,1000.36
2023-03-11T12:18:01.741Z,1000.43
2023-03-11T12:19:01.791Z,1000.39
2023-03-11T12:20:01.844Z,1000.40
2023-03-11T12:21:01.627Z,1000.41